Time;durP1;ratioP1;P1;durP2;ratioP2;P2;SDS_P1;SDS_P2;PMS_P1;PMS_P2;Temp;Humidity;BMP_temperature;BMP_pressure;BME280_temperature;BME280_humidity;BME280_pressure;Samples;Min_cycle;Max_cycle;Signal;HPM_P1;HPM_P2
2022/06/28 00:00:47;;;;;;;14.38;13.27;;;18.70;56.00;;;;;;5016138;28;20033;-77
2022/06/28 00:03:14;;;;;;;14.20;13.35;;;18.70;56.10;;;;;;5033255;28;20024;-77
2022/06/28 00:05:40;;;;;;;15.05;13.63;;;18.60;56.10;;;;;;5031816;28;20040;-77
2022/06/28 00:08:06;;;;;;;14.98;13.30;;;18.60;56.20;;;;;;5036973;28;20045;-77
2022/06/28 00:10:32;;;;;;;14.80;13.65;;;18.50;56.40;;;;;;5037475;28;20045;-77
2022/06/28 00:12:59;;;;;;;14.18;12.88;;;18.50;56.50;;;;;;5033229;28;20021;-77
2022/06/28 00:18:10;;;;;;;12.65;11.73;;;18.40;56.70;;;;;;5035947;28;20032;-77
2022/06/28 00:20:36;;;;;;;12.75;11.57;;;18.40;56.90;;;;;;5015764;28;20036;-77
2022/06/28 00:23:02;;;;;;;13.02;12.00;;;18.30;57.00;;;;;;5037987;28;20045;-77
2022/06/28 00:25:28;;;;;;;13.07;12.05;;;18.30;57.00;;;;;;5032642;28;20071;-78
2022/06/28 00:27:54;;;;;;;13.90;12.52;;;18.30;57.10;;;;;;5032392;28;20041;-77
2022/06/28 00:30:20;;;;;;;13.02;11.88;;;18.20;57.40;;;;;;5035920;28;20478;-77
2022/06/28 00:32:47;;;;;;;14.30;13.45;;;18.10;57.80;;;;;;5033340;28;20505;-77
2022/06/28 00:35:13;;;;;;;13.55;12.40;;;18.10;57.70;;;;;;5001817;28;20476;-77
2022/06/28 00:37:39;;;;;;;13.38;12.45;;;18.10;58.00;;;;;;5036246;28;20029;-77
2022/06/28 00:40:06;;;;;;;13.60;12.35;;;18.00;58.20;;;;;;5036718;28;20105;-77
2022/06/28 00:42:32;;;;;;;14.15;13.07;;;18.00;58.20;;;;;;5032932;28;20463;-77
2022/06/28 00:44:58;;;;;;;17.70;16.40;;;18.00;58.40;;;;;;5030592;28;20063;-77
2022/06/28 00:47:26;;;;;;;20.45;18.90;;;17.90;58.30;;;;;;5015368;28;20476;-77
2022/06/28 00:49:52;;;;;;;18.80;17.52;;;17.90;58.30;;;;;;5018099;28;20036;-77
2022/06/28 00:52:18;;;;;;;21.90;20.25;;;17.90;58.30;;;;;;5032012;28;20042;-77
2022/06/28 00:54:44;;;;;;;27.92;25.88;;;17.90;58.50;;;;;;5032500;28;20032;-77
2022/06/28 00:57:10;;;;;;;23.92;22.13;;;17.90;58.60;;;;;;5032236;28;20051;-77
2022/06/28 00:59:36;;;;;;;22.35;20.83;;;17.80;58.80;;;;;;5014834;28;20030;-77
2022/06/28 01:02:03;;;;;;;20.85;18.88;;;17.80;58.80;;;;;;5036762;28;20037;-77
2022/06/28 01:04:29;;;;;;;21.73;20.10;;;17.70;59.10;;;;;;5016076;28;20041;-77
2022/06/28 01:06:55;;;;;;;20.10;18.80;;;17.70;59.10;;;;;;5014638;28;20053;-77
2022/06/28 01:09:21;;;;;;;23.38;21.70;;;17.70;59.20;;;;;;5032210;28;20035;-77
2022/06/28 01:11:48;;;;;;;23.08;21.33;;;17.60;59.40;;;;;;4998092;28;20041;-77
2022/06/28 01:14:14;;;;;;;20.52;19.15;;;17.60;59.40;;;;;;5036061;28;20376;-77
2022/06/28 01:16:40;;;;;;;23.25;21.85;;;17.60;59.30;;;;;;5036046;28;20045;-77
2022/06/28 01:19:06;;;;;;;19.58;18.23;;;17.60;59.70;;;;;;5015952;28;20037;-77
2022/06/28 01:21:33;;;;;;;19.05;17.85;;;17.60;59.40;;;;;;5032247;28;20475;-77
2022/06/28 01:23:59;;;;;;;16.98;15.68;;;17.60;59.40;;;;;;5029911;28;20030;-77
2022/06/28 01:26:25;;;;;;;16.60;15.57;;;17.60;59.40;;;;;;5033610;28;20056;-77
2022/06/28 01:28:52;;;;;;;15.80;14.68;;;17.50;59.60;;;;;;5019026;28;20033;-77
2022/06/28 01:31:20;;;;;;;17.00;15.80;;;17.50;59.60;;;;;;5035632;28;20045;-77
2022/06/28 01:33:46;;;;;;;15.43;14.43;;;17.50;59.80;;;;;;5015025;28;20044;-77
2022/06/28 01:36:12;;;;;;;14.40;13.40;;;17.40;59.70;;;;;;5017803;28;20043;-77
2022/06/28 01:38:39;;;;;;;14.07;13.05;;;17.40;59.70;;;;;;5031427;28;20025;-77
2022/06/28 01:41:05;;;;;;;14.13;13.13;;;17.40;59.80;;;;;;5019022;28;20044;-77
2022/06/28 01:43:34;;;;;;;14.00;12.68;;;17.40;59.80;;;;;;5035654;28;20037;-77
2022/06/28 01:46:00;;;;;;;13.55;12.65;;;17.30;59.90;;;;;;5035011;28;20049;-77
2022/06/28 01:48:26;;;;;;;15.32;13.50;;;17.40;60.10;;;;;;5035471;28;20029;-77
2022/06/28 01:50:52;;;;;;;13.75;12.65;;;17.30;60.20;;;;;;5032642;28;20462;-77
2022/06/28 01:53:19;;;;;;;13.35;12.20;;;17.30;60.60;;;;;;5034290;28;20055;-77
2022/06/28 01:55:45;;;;;;;11.88;11.07;;;17.30;60.40;;;;;;5036116;28;20060;-77
2022/06/28 01:58:11;;;;;;;12.20;11.35;;;17.30;60.40;;;;;;5031517;28;20044;-77
2022/06/28 02:00:37;;;;;;;11.32;10.52;;;17.20;60.60;;;;;;5014788;28;20033;-77
2022/06/28 02:03:04;;;;;;;11.88;10.65;;;17.10;61.00;;;;;;5033835;28;20033;-77
2022/06/28 02:05:30;;;;;;;11.30;10.40;;;17.10;61.40;;;;;;5032362;28;20033;-78
2022/06/28 02:07:56;;;;;;;12.63;11.23;;;17.10;61.60;;;;;;5034670;28;20052;-77
2022/06/28 02:10:23;;;;;;;11.60;10.88;;;17.10;61.90;;;;;;5031598;28;20063;-77
2022/06/28 02:12:49;;;;;;;11.57;10.57;;;17.00;61.70;;;;;;5014659;28;20041;-77
2022/06/28 02:15:15;;;;;;;11.65;10.75;;;17.00;61.90;;;;;;5034591;28;20040;-77
2022/06/28 02:17:41;;;;;;;11.57;10.52;;;17.00;61.90;;;;;;5030742;28;20026;-77
2022/06/28 02:20:08;;;;;;;12.13;11.30;;;16.90;61.90;;;;;;5033800;28;20046;-77
2022/06/28 02:22:34;;;;;;;13.20;12.23;;;16.90;62.10;;;;;;5014459;28;20502;-77
2022/06/28 02:25:00;;;;;;;14.23;12.98;;;16.80;62.10;;;;;;5034751;28;20037;-77
2022/06/28 02:27:26;;;;;;;14.45;13.23;;;16.80;62.30;;;;;;5033067;28;20037;-77
2022/06/28 02:29:53;;;;;;;15.90;14.73;;;16.80;62.30;;;;;;5032019;28;20029;-77
2022/06/28 02:32:19;;;;;;;15.48;14.20;;;16.80;62.50;;;;;;5032075;28;20092;-77
2022/06/28 02:40:23;;;;;;;14.52;13.43;;;16.50;64.30;;;;;;5031635;28;20052;-77
2022/06/28 02:42:50;;;;;;;15.00;13.98;;;16.60;63.40;;;;;;5015485;28;20033;-77
2022/06/28 02:45:17;;;;;;;14.63;13.40;;;16.60;63.20;;;;;;5033839;28;20380;-77
2022/06/28 02:47:43;;;;;;;14.10;13.20;;;16.50;63.70;;;;;;5029824;28;20411;-77
2022/06/28 02:50:09;;;;;;;15.90;14.63;;;16.50;63.80;;;;;;5033172;28;20053;-77
2022/06/28 02:52:36;;;;;;;15.00;13.98;;;16.50;63.80;;;;;;5030457;28;20030;-77
2022/06/28 02:55:02;;;;;;;16.58;15.25;;;16.40;63.70;;;;;;5030514;28;20052;-77
2022/06/28 02:57:29;;;;;;;15.80;14.75;;;16.50;63.70;;;;;;5034451;28;20041;-77
2022/06/28 02:59:55;;;;;;;16.42;15.43;;;16.50;63.60;;;;;;5011975;28;20021;-77
2022/06/28 03:02:21;;;;;;;16.85;15.75;;;16.40;63.60;;;;;;5032007;28;20033;-77
2022/06/28 03:04:47;;;;;;;18.13;16.83;;;16.40;64.00;;;;;;5017111;28;20037;-77
2022/06/28 03:07:13;;;;;;;17.52;16.35;;;16.40;63.80;;;;;;5033879;28;20517;-77
2022/06/28 03:09:39;;;;;;;16.88;15.88;;;16.40;63.80;;;;;;5014030;28;20033;-77
2022/06/28 03:12:06;;;;;;;18.10;16.80;;;16.40;63.80;;;;;;5033076;28;20501;-77
2022/06/28 03:14:32;;;;;;;16.05;15.02;;;16.40;64.00;;;;;;5029736;28;20492;-77
2022/06/28 03:16:59;;;;;;;16.55;15.25;;;16.40;63.70;;;;;;5016635;28;20490;-77
2022/06/28 03:19:25;;;;;;;16.15;14.82;;;16.40;63.90;;;;;;5029878;28;20033;-77
2022/06/28 03:21:51;;;;;;;15.73;14.52;;;16.30;64.00;;;;;;4997270;28;20037;-77
2022/06/28 03:24:17;;;;;;;15.15;14.15;;;16.20;64.30;;;;;;5033943;28;20044;-77
2022/06/28 03:26:43;;;;;;;15.77;14.57;;;16.20;64.60;;;;;;5028006;28;20068;-77
2022/06/28 03:29:09;;;;;;;16.05;14.95;;;16.20;64.60;;;;;;5033690;28;20491;-77
2022/06/28 03:31:36;;;;;;;15.20;14.35;;;16.20;64.50;;;;;;5036670;28;20068;-77
2022/06/28 03:34:02;;;;;;;14.32;13.20;;;16.20;64.70;;;;;;5033633;28;20044;-77
2022/06/28 03:36:28;;;;;;;14.98;13.30;;;16.10;64.50;;;;;;5019961;28;20044;-77
2022/06/28 03:38:54;;;;;;;14.15;13.13;;;16.10;64.70;;;;;;5035238;28;20029;-77
2022/06/28 03:41:23;;;;;;;14.35;13.10;;;16.10;64.80;;;;;;5036591;28;20059;-77
2022/06/28 03:43:52;;;;;;;15.15;13.75;;;16.10;64.80;;;;;;5037570;28;20036;-77
2022/06/28 03:46:19;;;;;;;14.20;13.20;;;16.10;65.00;;;;;;5049914;28;20054;-77
2022/06/28 03:48:45;;;;;;;14.38;13.18;;;16.10;65.10;;;;;;5032622;28;20040;-77
2022/06/28 03:51:12;;;;;;;18.02;16.88;;;16.10;65.30;;;;;;5033571;28;20021;-77
2022/06/28 03:53:38;;;;;;;17.85;16.45;;;16.10;65.10;;;;;;5033740;28;20025;-77
2022/06/28 03:56:04;;;;;;;14.77;13.68;;;16.10;65.30;;;;;;5017389;28;20396;-77
2022/06/28 03:58:31;;;;;;;14.27;12.88;;;16.10;65.10;;;;;;5018555;28;20053;-77
2022/06/28 04:00:57;;;;;;;13.13;12.13;;;16.00;65.00;;;;;;5016997;28;20037;-77
2022/06/28 04:03:23;;;;;;;12.57;11.77;;;16.00;65.00;;;;;;5037504;28;20033;-77
2022/06/28 04:05:49;;;;;;;12.50;11.60;;;15.90;65.40;;;;;;5032065;28;20044;-77
2022/06/28 04:08:15;;;;;;;12.15;11.27;;;15.90;65.40;;;;;;5036722;28;20053;-77
2022/06/28 04:10:41;;;;;;;14.43;13.32;;;15.90;65.60;;;;;;5038106;28;20048;-77
2022/06/28 04:13:07;;;;;;;13.30;12.18;;;15.90;65.60;;;;;;5037387;28;20029;-77
2022/06/28 04:15:35;;;;;;;12.70;11.80;;;15.80;65.70;;;;;;5016192;28;20044;-77
2022/06/28 04:18:01;;;;;;;13.13;12.00;;;15.80;66.00;;;;;;5035514;28;20029;-77
2022/06/28 04:20:27;;;;;;;12.57;11.63;;;15.80;65.80;;;;;;5034455;28;20033;-77
2022/06/28 04:22:53;;;;;;;13.05;11.88;;;15.70;66.00;;;;;;5038004;28;20056;-77
2022/06/28 04:25:19;;;;;;;12.13;11.20;;;15.70;65.90;;;;;;5035311;28;20052;-77
2022/06/28 04:27:46;;;;;;;12.23;11.15;;;15.70;66.10;;;;;;5033429;28;20029;-77
2022/06/28 04:30:12;;;;;;;12.80;11.90;;;15.70;67.00;;;;;;5015431;28;20044;-77
2022/06/28 04:32:38;;;;;;;12.93;12.07;;;15.70;66.50;;;;;;5032754;28;20475;-77
2022/06/28 04:35:05;;;;;;;13.40;12.23;;;15.60;66.80;;;;;;5019809;28;20040;-77
2022/06/28 04:37:31;;;;;;;14.15;12.57;;;15.60;67.00;;;;;;5035712;28;20046;-77
2022/06/28 04:39:57;;;;;;;13.18;12.18;;;15.60;67.00;;;;;;5037006;28;20029;-77
2022/06/28 04:42:23;;;;;;;13.40;12.20;;;15.70;67.20;;;;;;5015886;28;20442;-77
2022/06/28 04:44:49;;;;;;;12.25;11.20;;;15.70;67.40;;;;;;5033257;28;20030;-77
2022/06/28 04:47:15;;;;;;;12.70;11.63;;;15.70;67.20;;;;;;5035708;28;20038;-77
2022/06/28 04:49:41;;;;;;;12.07;11.00;;;15.70;67.10;;;;;;5036052;28;20053;-77
2022/06/28 04:52:08;;;;;;;17.45;12.50;;;15.70;67.60;;;;;;5036708;28;20109;-77
2022/06/28 04:54:34;;;;;;;12.70;11.70;;;15.70;68.10;;;;;;5032785;28;20033;-77
2022/06/28 04:57:00;;;;;;;12.55;11.40;;;15.80;68.40;;;;;;5014336;28;20030;-77
2022/06/28 04:59:26;;;;;;;13.18;11.88;;;15.80;68.60;;;;;;5034151;28;20049;-77
2022/06/28 05:01:52;;;;;;;14.55;13.55;;;15.80;68.60;;;;;;5036689;28;20464;-77
2022/06/28 05:04:19;;;;;;;16.73;15.25;;;15.90;68.40;;;;;;5032615;28;20029;-77
2022/06/28 05:06:45;;;;;;;15.02;13.90;;;16.10;68.80;;;;;;5036078;28;20052;-77
2022/06/28 05:09:11;;;;;;;13.45;12.30;;;16.20;69.30;;;;;;5036279;28;20017;-77
2022/06/28 05:11:37;;;;;;;14.02;12.90;;;16.40;68.60;;;;;;5031168;28;20029;-77
2022/06/28 05:14:03;;;;;;;13.20;12.10;;;16.60;68.20;;;;;;5036048;28;20045;-77
2022/06/28 05:16:29;;;;;;;13.15;12.05;;;16.70;67.90;;;;;;5031680;28;20029;-77
2022/06/28 05:18:55;;;;;;;13.27;12.18;;;16.90;67.50;;;;;;5034459;28;20038;-77
2022/06/28 05:21:21;;;;;;;13.85;12.73;;;17.10;67.10;;;;;;5035978;28;20029;-77
2022/06/28 05:23:47;;;;;;;14.32;13.27;;;17.30;66.90;;;;;;5032499;28;20415;-77
2022/06/28 05:26:13;;;;;;;15.02;13.68;;;17.60;66.10;;;;;;5033737;28;20408;-77
2022/06/28 05:28:39;;;;;;;14.93;13.93;;;17.60;65.30;;;;;;5035174;28;20030;-77
2022/06/28 05:31:06;;;;;;;15.68;14.68;;;17.80;65.00;;;;;;5035005;28;20037;-77
2022/06/28 05:33:32;;;;;;;17.15;15.68;;;18.00;64.40;;;;;;5032090;28;20506;-77
2022/06/28 05:35:58;;;;;;;17.48;16.05;;;18.20;63.10;;;;;;5033294;28;20041;-77
2022/06/28 05:38:24;;;;;;;18.15;16.95;;;18.40;63.20;;;;;;5013768;28;20488;-77
2022/06/28 05:40:50;;;;;;;17.77;16.58;;;18.50;62.40;;;;;;5018724;28;20033;-77
2022/06/28 05:43:16;;;;;;;16.60;15.48;;;18.60;61.30;;;;;;5035777;28;20033;-77
2022/06/28 05:45:42;;;;;;;16.92;15.63;;;18.60;61.80;;;;;;5034709;28;20049;-77
2022/06/28 05:48:08;;;;;;;19.42;18.02;;;18.70;61.90;;;;;;5030937;28;20033;-77
2022/06/28 05:50:34;;;;;;;19.98;18.40;;;18.80;61.50;;;;;;5032290;28;20022;-77
2022/06/28 05:53:00;;;;;;;20.40;18.70;;;19.00;61.20;;;;;;5036216;28;20025;-77
2022/06/28 05:55:26;;;;;;;20.50;19.05;;;19.20;60.50;;;;;;5031542;28;20033;-77
2022/06/28 05:57:53;;;;;;;20.33;18.98;;;19.40;60.00;;;;;;5033699;28;20476;-77
2022/06/28 06:00:19;;;;;;;21.63;20.23;;;19.50;60.10;;;;;;5034629;28;20036;-77
2022/06/28 06:02:45;;;;;;;21.25;19.70;;;19.60;59.20;;;;;;5029569;28;20036;-77
2022/06/28 06:05:11;;;;;;;21.13;19.83;;;19.70;58.90;;;;;;5035773;28;20032;-77
2022/06/28 06:07:37;;;;;;;21.50;20.20;;;19.90;58.60;;;;;;5034834;28;20049;-77
2022/06/28 06:10:04;;;;;;;22.02;20.25;;;20.00;58.20;;;;;;5035258;28;20391;-77
2022/06/28 06:12:30;;;;;;;21.13;19.83;;;20.10;57.90;;;;;;5033289;28;20056;-77
2022/06/28 06:14:58;;;;;;;22.25;20.83;;;20.10;58.40;;;;;;5014395;28;20407;-77
2022/06/28 06:17:24;;;;;;;21.48;19.98;;;20.10;58.50;;;;;;5015360;28;20053;-77
2022/06/28 06:19:50;;;;;;;23.10;21.70;;;20.20;58.80;;;;;;5035920;28;20033;-77
2022/06/28 06:22:16;;;;;;;23.70;21.95;;;20.40;58.20;;;;;;5034687;28;20033;-77
2022/06/28 06:24:42;;;;;;;24.95;23.23;;;20.60;57.70;;;;;;5034994;28;20468;-77
2022/06/28 06:27:08;;;;;;;23.60;21.98;;;20.70;57.50;;;;;;5032288;28;20053;-77
2022/06/28 06:29:35;;;;;;;22.77;21.23;;;20.80;57.30;;;;;;5030972;28;20029;-77
2022/06/28 06:32:01;;;;;;;22.25;20.65;;;21.00;57.10;;;;;;5031868;28;20033;-77
2022/06/28 06:34:27;;;;;;;25.02;23.20;;;21.00;57.00;;;;;;5030747;28;20026;-77
2022/06/28 06:36:54;;;;;;;27.10;25.40;;;21.20;56.30;;;;;;5032972;28;20042;-77
2022/06/28 06:39:20;;;;;;;27.05;25.35;;;21.30;56.40;;;;;;5034537;28;20036;-77
2022/06/28 06:41:46;;;;;;;27.67;25.77;;;21.30;55.60;;;;;;5029036;28;20056;-77
2022/06/28 06:44:13;;;;;;;26.70;25.08;;;21.30;55.50;;;;;;5034394;28;20025;-78
2022/06/28 06:46:39;;;;;;;27.48;25.88;;;21.50;55.70;;;;;;5034443;28;20045;-77
2022/06/28 06:49:05;;;;;;;28.17;26.20;;;21.60;55.10;;;;;;5034617;28;20030;-77
2022/06/28 06:51:31;;;;;;;28.52;26.70;;;21.80;55.10;;;;;;5030785;28;20025;-77
2022/06/28 06:53:58;;;;;;;30.58;28.55;;;21.80;54.20;;;;;;5027773;28;20057;-77
2022/06/28 06:56:24;;;;;;;27.30;25.58;;;21.90;53.80;;;;;;5032415;28;20029;-78
2022/06/28 06:58:50;;;;;;;26.90;25.20;;;22.10;53.70;;;;;;5033748;28;20036;-77
2022/06/28 07:01:16;;;;;;;24.05;22.45;;;22.00;52.40;;;;;;5032024;28;20410;-77
2022/06/28 07:03:44;;;;;;;25.77;23.90;;;21.80;53.60;;;;;;5030466;28;20033;-77
2022/06/28 07:06:14;;;;;;;25.05;22.77;;;21.90;53.00;;;;;;5029274;28;20395;-77
2022/06/28 07:08:40;;;;;;;24.33;23.00;;;21.90;53.50;;;;;;5029549;28;20057;-78
2022/06/28 07:11:06;;;;;;;26.92;25.08;;;22.00;52.90;;;;;;5035217;28;20395;-77
2022/06/28 07:13:32;;;;;;;23.60;22.20;;;22.00;52.30;;;;;;5033825;28;20029;-78
2022/06/28 07:16:01;;;;;;;25.70;24.20;;;22.00;51.30;;;;;;5015709;28;20060;-77
2022/06/28 07:18:28;;;;;;;32.30;30.42;;;22.10;52.00;;;;;;5033572;28;20041;-78
2022/06/28 07:20:55;;;;;;;28.75;27.08;;;22.20;51.60;;;;;;5031257;28;20041;-78
2022/06/28 07:23:22;;;;;;;36.38;34.28;;;22.50;51.70;;;;;;5031453;28;20029;-78
2022/06/28 07:25:48;;;;;;;34.28;31.92;;;22.70;51.00;;;;;;5033514;28;20022;-78
2022/06/28 07:28:14;;;;;;;38.83;36.35;;;22.80;49.80;;;;;;5033761;28;20399;-78
2022/06/28 07:30:40;;;;;;;34.45;32.35;;;22.80;50.20;;;;;;5029922;28;20030;-78
2022/06/28 07:33:06;;;;;;;38.30;36.10;;;23.00;49.90;;;;;;5028266;28;20040;-78
2022/06/28 07:35:32;;;;;;;36.00;34.00;;;23.10;50.00;;;;;;5030603;28;20036;-78
2022/06/28 07:37:58;;;;;;;38.63;36.22;;;23.20;49.70;;;;;;5035224;28;20487;-78
2022/06/28 07:40:25;;;;;;;34.42;32.45;;;23.40;48.20;;;;;;5029948;28;20029;-78
2022/06/28 07:42:51;;;;;;;36.00;33.50;;;23.40;47.20;;;;;;5030204;28;20468;-78
2022/06/28 07:45:17;;;;;;;32.15;30.25;;;23.40;48.10;;;;;;5031795;28;20044;-78
2022/06/28 07:47:47;;;;;;;34.05;32.10;;;22.90;48.40;;;;;;5029648;28;20041;-78
2022/06/28 07:53:01;;;;;;;36.55;34.38;;;23.10;49.30;;;;;;5038557;28;20044;-78
2022/06/28 07:55:27;;;;;;;36.78;34.50;;;23.40;48.10;;;;;;5033434;28;20033;-78
2022/06/28 07:57:53;;;;;;;35.63;33.53;;;23.60;48.70;;;;;;5033923;28;20435;-78
2022/06/28 08:00:21;;;;;;;35.72;33.72;;;23.70;46.90;;;;;;5029617;28;20021;-78
2022/06/28 08:02:49;;;;;;;36.00;33.95;;;23.70;47.40;;;;;;5029414;28;20050;-78
2022/06/28 08:05:15;;;;;;;41.67;39.42;;;23.80;47.70;;;;;;5033481;28;20025;-78
2022/06/28 08:07:41;;;;;;;42.50;40.15;;;24.00;47.10;;;;;;5032345;28;20049;-78
2022/06/28 08:10:08;;;;;;;41.85;39.35;;;24.10;46.80;;;;;;5029460;28;20052;-78
2022/06/28 08:12:35;;;;;;;39.08;36.90;;;24.30;46.50;;;;;;5033872;28;20037;-78
2022/06/28 08:15:01;;;;;;;42.65;40.08;;;24.50;46.00;;;;;;5027665;28;20033;-78
2022/06/28 08:17:27;;;;;;;35.17;33.25;;;24.60;45.50;;;;;;5031106;28;20038;-78
2022/06/28 08:19:53;;;;;;;35.42;33.10;;;24.70;45.30;;;;;;5036959;28;20033;-78
2022/06/28 08:22:19;;;;;;;41.25;39.10;;;24.90;45.20;;;;;;5037346;28;20033;-78
2022/06/28 08:24:45;;;;;;;35.70;33.55;;;25.00;44.70;;;;;;5016833;28;20029;-78
2022/06/28 08:27:11;;;;;;;42.53;39.97;;;25.10;44.50;;;;;;5032836;28;20037;-78
2022/06/28 08:29:38;;;;;;;33.42;31.52;;;25.30;44.90;;;;;;5033465;28;20115;-79
2022/06/28 08:32:04;;;;;;;32.67;30.40;;;25.40;44.20;;;;;;5037517;28;20048;-78
2022/06/28 08:34:30;;;;;;;33.42;31.30;;;25.50;43.10;;;;;;5036970;28;20432;-78
2022/06/28 08:36:56;;;;;;;33.30;31.50;;;25.50;42.50;;;;;;5019078;28;20033;-78
2022/06/28 08:39:22;;;;;;;40.83;38.28;;;25.50;42.50;;;;;;5036686;28;20029;-78
2022/06/28 08:41:48;;;;;;;33.25;31.10;;;25.20;42.60;;;;;;5031580;28;20041;-78
2022/06/28 08:44:15;;;;;;;32.83;30.67;;;25.00;42.50;;;;;;5018790;28;20022;-78
2022/06/28 08:46:41;;;;;;;32.75;30.88;;;25.00;42.20;;;;;;5035133;28;20050;-78
2022/06/28 08:49:17;;;;;;;30.85;28.85;;;24.90;41.90;;;;;;5032909;28;20475;-78
2022/06/28 08:51:43;;;;;;;31.60;29.60;;;24.70;41.70;;;;;;5016748;28;20388;-78
2022/06/28 08:54:09;;;;;;;31.33;29.52;;;24.60;42.80;;;;;;5015312;28;20470;-78
2022/06/28 08:56:38;;;;;;;30.13;28.42;;;24.70;43.40;;;;;;5015466;28;20044;-78
2022/06/28 08:59:06;;;;;;;32.20;29.98;;;25.00;42.20;;;;;;5020105;28;20037;-78
2022/06/28 09:01:32;;;;;;;30.77;28.83;;;24.90;41.90;;;;;;5015381;28;20044;-78
2022/06/28 09:03:58;;;;;;;30.83;29.15;;;25.10;41.70;;;;;;5016181;28;20029;-78
2022/06/28 09:06:24;;;;;;;31.33;29.63;;;25.30;41.20;;;;;;5015855;28;20041;-78
2022/06/28 09:08:50;;;;;;;29.67;27.98;;;25.40;38.50;;;;;;5031086;28;20025;-78
2022/06/28 09:11:16;;;;;;;31.67;29.88;;;24.90;39.60;;;;;;5017927;28;20476;-78
2022/06/28 09:13:43;;;;;;;31.05;29.35;;;24.70;40.60;;;;;;5035573;28;20036;-78
2022/06/28 09:16:09;;;;;;;30.67;28.88;;;24.70;40.00;;;;;;5031845;28;20033;-78
2022/06/28 09:18:35;;;;;;;32.50;30.70;;;24.80;41.30;;;;;;5032435;28;20033;-78
2022/06/28 09:21:06;;;;;;;30.67;28.98;;;24.80;41.60;;;;;;5029837;28;20053;-78
2022/06/28 09:23:37;;;;;;;31.65;29.48;;;25.00;41.30;;;;;;5029764;28;20048;-78
2022/06/28 09:26:06;;;;;;;31.70;29.83;;;25.10;41.20;;;;;;5036959;28;20411;-78
2022/06/28 09:28:34;;;;;;;31.27;29.48;;;25.20;40.90;;;;;;5031791;28;20096;-78
2022/06/28 09:31:20;;;;;;;32.80;30.95;;;25.20;41.00;;;;;;5035540;28;20052;-78
2022/06/28 09:33:48;;;;;;;32.55;30.48;;;25.40;41.10;;;;;;5035870;28;20028;-78
2022/06/28 09:36:16;;;;;;;31.67;29.77;;;25.60;40.70;;;;;;5018338;28;20017;-78
2022/06/28 09:38:42;;;;;;;33.47;31.48;;;25.40;40.20;;;;;;4997646;28;20040;-78
2022/06/28 09:41:19;;;;;;;36.55;34.47;;;25.50;40.90;;;;;;5036780;28;20025;-78
2022/06/28 09:43:50;;;;;;;1999.90;999.90;;;25.90;40.00;;;;;;5036170;28;20479;-78
2022/06/28 09:46:16;;;;;;;33.95;32.13;;;26.20;39.30;;;;;;5001771;28;20037;-78
2022/06/28 09:48:42;;;;;;;1999.90;999.90;;;26.30;39.20;;;;;;4999107;28;20044;-78
2022/06/28 09:51:08;;;;;;;1999.90;999.90;;;26.50;38.80;;;;;;5014068;28;20021;-78
2022/06/28 09:53:42;;;;;;;1999.90;999.90;;;26.60;38.00;;;;;;5014445;28;20413;-78
2022/06/28 09:56:08;;;;;;;1999.90;999.90;;;26.60;37.40;;;;;;5035335;28;20040;-78
2022/06/28 09:58:34;;;;;;;34.55;32.55;;;26.40;36.80;;;;;;5031468;28;20038;-78
2022/06/28 10:01:00;;;;;;;1999.90;999.90;;;26.30;38.20;;;;;;5031070;28;20503;-78
2022/06/28 10:03:27;;;;;;;1999.90;999.90;;;26.40;37.20;;;;;;5015254;28;20024;-78
2022/06/28 10:05:55;;;;;;;1999.90;999.90;;;26.40;37.30;;;;;;5011403;28;20034;-78
2022/06/28 10:08:21;;;;;;;1999.90;999.90;;;26.60;36.80;;;;;;4999882;28;20519;-78
2022/06/28 10:10:47;;;;;;;1999.90;999.90;;;26.90;36.40;;;;;;5018489;28;20038;-78
2022/06/28 10:16:04;;;;;;;1999.90;999.90;;;27.00;35.80;;;;;;5018711;28;20487;-78
2022/06/28 10:18:30;;;;;;;1999.90;999.90;;;26.90;36.30;;;;;;5031482;28;20013;-78
2022/06/28 10:20:56;;;;;;;1999.90;999.90;;;27.10;36.80;;;;;;5011850;28;20220;-77
2022/06/28 10:23:33;;;;;;;1999.90;999.90;;;27.20;36.50;;;;;;5032119;28;20483;-78
2022/06/28 10:26:11;;;;;;;1999.90;999.90;;;27.30;36.40;;;;;;5034885;28;20029;-79
2022/06/28 10:28:44;;;;;;;1999.90;999.90;;;27.30;35.30;;;;;;5034841;28;20045;-78
2022/06/28 10:31:25;;;;;;;1999.90;999.90;;;27.40;35.40;;;;;;5030487;28;20034;-78
2022/06/28 10:33:53;;;;;;;1999.90;999.90;;;27.40;35.40;;;;;;5034744;28;20037;-78
2022/06/28 10:36:20;;;;;;;1999.90;999.90;;;27.40;35.40;;;;;;5033124;28;20018;-78
2022/06/28 10:39:08;;;;;;;1999.90;999.90;;;27.30;35.20;;;;;;5028626;28;20041;-78
2022/06/28 10:41:59;;;;;;;1999.90;999.90;;;27.30;34.60;;;;;;5030790;28;20491;-79
2022/06/28 10:44:27;;;;;;;1999.90;999.90;;;27.20;34.70;;;;;;5044398;28;20033;-78
2022/06/28 10:47:05;;;;;;;1999.90;999.90;;;27.10;34.30;;;;;;5034969;28;20052;-78
2022/06/28 10:49:46;;;;;;;1999.90;999.90;;;27.20;35.20;;;;;;5034205;28;20036;-78
2022/06/28 10:52:14;;;;;;;;;;;27.40;34.20;;;;;;5034833;28;20523;-78
2022/06/28 10:55:03;;;;;;;1999.90;999.90;;;27.40;34.40;;;;;;5033133;28;19912;-78
2022/06/28 10:57:35;;;;;;;1999.90;999.90;;;27.40;34.60;;;;;;5026548;28;20394;-79
2022/06/28 11:00:07;;;;;;;1999.90;999.90;;;27.30;33.80;;;;;;5028137;28;20065;-79
2022/06/28 11:02:49;;;;;;;1999.90;999.90;;;27.10;35.10;;;;;;5029237;28;20046;-79
2022/06/28 11:05:16;;;;;;;1999.90;999.90;;;27.30;35.00;;;;;;5041122;28;20045;-79
2022/06/28 11:07:55;;;;;;;1999.90;999.90;;;27.40;34.50;;;;;;5016643;28;20053;-79
2022/06/28 11:10:21;;;;;;;1999.90;999.90;;;27.60;33.70;;;;;;5034254;28;20476;-79
2022/06/28 11:12:48;;;;;;;1999.90;999.90;;;27.00;33.40;;;;;;5030490;28;20049;-79
2022/06/28 11:15:32;;;;;;;1999.90;999.90;;;27.00;35.20;;;;;;4996877;28;20151;-79
2022/06/28 11:17:58;;;;;;;1999.90;999.90;;;27.40;33.80;;;;;;5018059;28;20025;-79
2022/06/28 11:20:24;;;;;;;1999.90;999.90;;;27.40;33.90;;;;;;5014750;28;20034;-79
2022/06/28 11:22:51;;;;;;;1999.90;999.90;;;27.20;33.80;;;;;;5034891;28;20045;-79
2022/06/28 11:25:21;;;;;;;33.58;31.85;;;27.00;34.20;;;;;;5034065;28;20029;-79
2022/06/28 11:27:47;;;;;;;;;;;26.80;35.10;;;;;;5030684;28;20041;-79
2022/06/28 11:30:14;;;;;;;32.47;30.73;;;26.90;34.70;;;;;;5033342;28;19919;-79
2022/06/28 11:32:44;;;;;;;1999.90;999.90;;;27.00;34.90;;;;;;5029604;28;20040;-79
2022/06/28 11:35:23;;;;;;;1999.90;999.90;;;27.10;35.50;;;;;;5029350;28;20547;-79
2022/06/28 11:37:57;;;;;;;1999.90;999.90;;;27.30;35.20;;;;;;5033117;28;20399;-79
2022/06/28 11:40:28;;;;;;;1999.90;999.90;;;27.50;34.70;;;;;;5030200;28;20041;-79
2022/06/28 11:43:15;;;;;;;1999.90;999.90;;;27.70;34.30;;;;;;5030192;28;20022;-79
2022/06/28 11:45:42;;;;;;;1999.90;999.90;;;27.80;34.10;;;;;;5032040;28;20029;-79
2022/06/28 11:48:10;;;;;;;1999.90;999.90;;;28.00;34.30;;;;;;5028819;28;20503;-79
2022/06/28 11:50:49;;;;;;;1999.90;999.90;;;28.10;34.70;;;;;;5028921;28;20025;-79
2022/06/28 11:53:15;;;;;;;1999.90;999.90;;;28.20;33.30;;;;;;5045248;28;20033;-79
2022/06/28 11:55:46;;;;;;;1999.90;999.90;;;28.00;33.50;;;;;;5038298;28;20029;-79
2022/06/28 11:58:18;;;;;;;1999.90;999.90;;;27.80;34.00;;;;;;5033839;28;20407;-79
2022/06/28 12:01:07;;;;;;;1999.90;999.90;;;27.80;33.70;;;;;;5032279;28;20038;-79
2022/06/28 12:03:35;;;;;;;1999.90;999.90;;;28.00;34.40;;;;;;5033367;28;20017;-79
2022/06/28 12:06:02;;;;;;;1999.90;999.90;;;28.10;33.80;;;;;;5015054;28;20045;-79
2022/06/28 12:08:44;;;;;;;1999.90;999.90;;;28.00;33.80;;;;;;5033298;28;20057;-79
2022/06/28 12:11:31;;;;;;;1999.90;999.90;;;28.00;33.30;;;;;;5045869;28;20041;-79
2022/06/28 12:14:18;;;;;;;1999.90;999.90;;;28.00;33.50;;;;;;5046100;28;20045;-79
2022/06/28 12:16:51;;;;;;;1999.90;999.90;;;28.10;32.90;;;;;;5018778;28;20025;-79
2022/06/28 12:19:19;;;;;;;1999.90;999.90;;;28.20;32.80;;;;;;5017296;28;20037;-79
2022/06/28 12:22:04;;;;;;;1999.90;999.90;;;28.10;32.90;;;;;;5035430;28;20033;-79
2022/06/28 12:24:46;;;;;;;1999.90;999.90;;;28.20;32.50;;;;;;5037268;28;20036;-79
2022/06/28 12:27:14;;;;;;;1999.90;999.90;;;28.20;32.70;;;;;;5032846;28;20514;-79
2022/06/28 12:29:40;;;;;;;1999.90;999.90;;;28.20;32.30;;;;;;5031599;28;20514;-79
2022/06/28 12:32:06;;;;;;;1999.90;999.90;;;28.30;32.30;;;;;;5019408;28;20029;-79
2022/06/28 12:34:33;;;;;;;1999.90;999.90;;;28.20;32.90;;;;;;5016737;28;20109;-79
2022/06/28 12:36:59;;;;;;;1999.90;999.90;;;28.00;32.90;;;;;;5015021;28;20038;-79